createdAt,value
2022-07-27T00:03:42.403Z,4.57
2022-07-27T00:09:11.725Z,3.88
2022-07-27T00:14:43.156Z,3.63
2022-07-27T00:20:13.219Z,3.75
2022-07-27T00:25:42.448Z,3.60
2022-07-27T00:31:13.119Z,3.50
2022-07-27T00:36:42.250Z,3.30
2022-07-27T00:42:08.882Z,3.70
2022-07-27T00:47:35.514Z,3.55
2022-07-27T00:53:06.052Z,3.35
2022-07-27T00:58:30.868Z,3.67
2022-07-27T01:09:44.588Z,4.55
2022-07-27T01:15:13.948Z,4.78
2022-07-27T01:20:42.650Z,4.65
2022-07-27T01:26:12.803Z,4.70
2022-07-27T01:31:41.808Z,4.68
2022-07-27T01:37:10.500Z,4.38
2022-07-27T01:42:40.731Z,4.28
2022-07-27T01:48:10.789Z,4.65
2022-07-27T01:53:39.442Z,4.45
2022-07-27T02:04:41.729Z,5.05
2022-07-27T02:10:11.132Z,5.35
2022-07-27T02:15:43.136Z,5.22
2022-07-27T02:21:13.628Z,5.03
2022-07-27T02:26:43.032Z,5.10
2022-07-27T02:32:11.121Z,5.00
2022-07-27T02:37:40.761Z,5.57
2022-07-27T02:43:09.341Z,4.68
2022-07-27T02:48:40.127Z,5.35
2022-07-27T02:54:09.431Z,5.60
2022-07-27T02:59:39.821Z,7.18
2022-07-27T03:05:05.646Z,5.40
2022-07-27T03:10:34.233Z,5.22
2022-07-27T03:15:58.270Z,5.57
2022-07-27T03:21:28.655Z,5.82
2022-07-27T03:26:57.688Z,5.60
2022-07-27T03:32:23.058Z,6.38
2022-07-27T03:37:53.758Z,5.75
2022-07-27T03:43:16.987Z,5.53
2022-07-27T03:48:40.998Z,6.85
2022-07-27T03:54:06.610Z,6.50
2022-07-27T03:59:32.461Z,5.80
2022-07-27T04:04:56.341Z,6.22
2022-07-27T04:10:31.568Z,6.20
2022-07-27T04:15:57.915Z,7.07
2022-07-27T04:21:28.227Z,5.53
2022-07-27T04:27:05.040Z,7.90
2022-07-27T04:32:34.360Z,7.55
2022-07-27T04:43:33.491Z,7.07
2022-07-27T04:49:02.449Z,6.88
2022-07-27T04:54:31.480Z,6.82
2022-07-27T05:00:01.517Z,5.72
2022-07-27T05:05:30.701Z,5.30
2022-07-27T05:16:30.508Z,7.20
2022-07-27T05:21:59.450Z,6.35
2022-07-27T05:27:28.702Z,5.53
2022-07-27T05:32:55.869Z,4.20
2022-07-27T05:38:23.902Z,3.80
2022-07-27T05:43:55.504Z,4.35
2022-07-27T05:49:22.693Z,5.22
2022-07-27T05:54:51.193Z,4.25
2022-07-27T06:00:20.741Z,4.72
2022-07-27T06:05:51.257Z,4.72
2022-07-27T06:11:20.087Z,5.75
2022-07-27T06:16:49.590Z,4.55
2022-07-27T06:22:19.607Z,3.78
2022-07-27T06:27:48.980Z,3.70
2022-07-27T06:33:18.430Z,3.30
2022-07-27T06:38:43.614Z,4.03
2022-07-27T06:44:12.174Z,4.18
2022-07-27T06:49:35.909Z,6.00
2022-07-27T06:55:01.090Z,3.92
2022-07-27T07:00:29.060Z,3.55
2022-07-27T07:05:54.891Z,4.15
2022-07-27T07:11:21.104Z,2.97
2022-07-27T07:16:50.717Z,3.53
2022-07-27T07:22:14.538Z,4.10
2022-07-27T07:27:44.733Z,2.67
2022-07-27T07:33:14.250Z,2.20
2022-07-27T07:38:41.655Z,2.65
2022-07-27T07:44:11.296Z,3.90
2022-07-27T07:49:39.880Z,2.42
2022-07-27T07:55:10.340Z,3.45
2022-07-27T08:00:44.199Z,4.15
2022-07-27T08:06:13.513Z,1.85
2022-07-27T08:11:42.600Z,4.22
2022-07-27T08:17:12.908Z,1.70
2022-07-27T08:22:37.182Z,2.22
2022-07-27T08:28:04.820Z,2.45
2022-07-27T08:33:33.786Z,2.33
2022-07-27T08:39:08.737Z,1.95
2022-07-27T08:44:41.018Z,2.15
2022-07-27T08:50:24.382Z,2.40
2022-07-27T08:55:53.730Z,6.05
2022-07-27T09:01:23.539Z,2.67
2022-07-27T09:06:53.344Z,2.50
2022-07-27T09:12:28.883Z,2.10
2022-07-27T09:17:53.062Z,2.10
2022-07-27T09:23:28.495Z,2.05
2022-07-27T09:28:55.927Z,2.30
2022-07-27T09:34:30.493Z,1.98
2022-07-27T09:40:25.475Z,2.15
2022-07-27T09:45:51.342Z,1.17
2022-07-27T09:51:58.373Z,2.08
2022-07-27T09:57:09.636Z,2.70
2022-07-27T10:02:38.846Z,2.13
2022-07-27T10:08:09.016Z,1.92
2022-07-27T10:13:43.587Z,1.60
2022-07-27T10:19:17.272Z,2.13
2022-07-27T10:24:59.980Z,2.40
2022-07-27T10:30:30.761Z,1.92
2022-07-27T10:35:54.330Z,1.63
2022-07-27T10:41:26.286Z,2.53
2022-07-27T10:46:54.763Z,2.10
2022-07-27T10:52:42.034Z,2.00
2022-07-27T10:58:46.298Z,2.03
2022-07-27T11:04:14.869Z,2.17
2022-07-27T11:15:27.601Z,2.00
2022-07-27T11:20:52.465Z,2.30
2022-07-27T11:26:17.139Z,2.13
2022-07-27T11:31:58.301Z,2.38
2022-07-27T11:37:29.541Z,2.10
2022-07-27T11:42:56.953Z,2.35
2022-07-27T11:48:35.015Z,2.40
2022-07-27T11:54:21.982Z,1.98
2022-07-27T11:59:46.701Z,1.30
2022-07-27T12:05:12.339Z,2.92
2022-07-27T12:10:58.258Z,2.22
2022-07-27T12:16:27.474Z,2.10
2022-07-27T12:21:55.728Z,1.90
2022-07-27T12:27:27.529Z,1.95
2022-07-27T12:32:56.370Z,2.17
2022-07-27T12:38:25.733Z,1.83
2022-07-27T12:44:07.878Z,2.42
2022-07-27T12:49:40.819Z,2.40
2022-07-27T12:55:15.707Z,1.77
2022-07-27T13:00:42.597Z,2.55
2022-07-27T13:06:13.166Z,1.88
2022-07-27T13:11:46.202Z,2.42
2022-07-27T13:17:18.756Z,2.70
2022-07-27T13:22:48.571Z,2.42
2022-07-27T13:28:17.022Z,2.85
2022-07-27T13:33:46.732Z,1.90
2022-07-27T13:39:16.369Z,1.58
2022-07-27T13:45:03.883Z,1.70
2022-07-27T13:50:32.612Z,2.30
2022-07-27T13:56:03.082Z,1.38
2022-07-27T14:01:29.304Z,2.83
2022-07-27T14:07:00.364Z,1.90
2022-07-27T14:12:25.022Z,1.90
2022-07-27T14:17:54.704Z,1.85
2022-07-27T14:23:29.806Z,2.97
2022-07-27T14:28:56.822Z,3.45
2022-07-27T14:34:19.151Z,1.70
2022-07-27T14:39:49.894Z,2.75
2022-07-27T14:45:16.514Z,2.28
2022-07-27T14:50:40.230Z,1.98
2022-07-27T14:56:05.674Z,2.72
2022-07-27T15:01:35.405Z,2.47
2022-07-27T15:06:59.907Z,2.30
2022-07-27T15:12:26.725Z,2.67
2022-07-27T15:17:56.793Z,2.30
2022-07-27T15:23:26.598Z,2.00
2022-07-27T15:28:56.653Z,2.47
2022-07-27T15:34:25.229Z,1.90
2022-07-27T15:39:47.981Z,2.30
2022-07-27T15:45:18.882Z,2.20
2022-07-27T15:50:45.612Z,2.70
2022-07-27T15:56:14.153Z,3.08
2022-07-27T16:01:45.052Z,2.92
2022-07-27T16:07:11.265Z,2.95
2022-07-27T16:12:41.733Z,2.60
2022-07-27T16:18:11.844Z,3.67
2022-07-27T16:23:42.093Z,2.50
2022-07-27T16:29:08.895Z,3.17
2022-07-27T16:34:40.092Z,3.03
2022-07-27T16:40:10.377Z,3.15
2022-07-27T16:45:34.069Z,2.40
2022-07-27T16:51:05.083Z,3.95
2022-07-27T16:56:30.031Z,4.13
2022-07-27T17:01:59.288Z,3.08
2022-07-27T17:07:30.205Z,3.08
2022-07-27T17:13:00.131Z,4.45
2022-07-27T17:18:24.210Z,3.03
2022-07-27T17:23:49.479Z,4.35
2022-07-27T17:29:18.323Z,4.43
2022-07-27T17:34:47.980Z,5.07
2022-07-27T17:40:16.047Z,6.22
2022-07-27T17:45:45.469Z,5.38
2022-07-27T17:51:14.394Z,4.65
2022-07-27T17:56:45.173Z,5.60
2022-07-27T18:02:09.697Z,5.45
2022-07-27T18:07:40.310Z,6.15
2022-07-27T18:13:11.475Z,6.18
2022-07-27T18:18:42.537Z,3.95
2022-07-27T18:24:10.519Z,4.05
2022-07-27T18:29:36.273Z,5.50
2022-07-27T18:35:03.502Z,5.78
2022-07-27T18:40:33.236Z,4.97
2022-07-27T18:46:04.996Z,6.10
2022-07-27T18:51:34.477Z,5.20
2022-07-27T18:57:01.706Z,5.90
2022-07-27T19:02:28.048Z,6.22
2022-07-27T19:07:59.217Z,7.63
2022-07-27T19:13:27.325Z,7.70
2022-07-27T19:18:57.732Z,7.50
2022-07-27T19:24:26.421Z,7.18
2022-07-27T19:29:56.558Z,7.60
2022-07-27T19:35:21.511Z,7.68
2022-07-27T19:40:50.228Z,8.10
2022-07-27T19:46:20.237Z,7.70
2022-07-27T19:51:45.880Z,8.70
2022-07-27T19:57:15.475Z,7.40
2022-07-27T20:02:45.206Z,7.88
2022-07-27T20:08:13.178Z,7.72
2022-07-27T20:13:36.791Z,8.65
2022-07-27T20:19:01.816Z,7.45
2022-07-27T20:24:27.723Z,8.20
2022-07-27T20:29:50.841Z,6.07
2022-07-27T20:35:20.337Z,7.35
2022-07-27T20:40:50.711Z,8.15
2022-07-27T20:46:20.189Z,9.68
2022-07-27T20:51:43.865Z,7.45
2022-07-27T20:57:12.847Z,7.43
2022-07-27T21:02:36.649Z,7.47
2022-07-27T21:08:07.165Z,7.57
2022-07-27T21:13:35.861Z,7.25
2022-07-27T21:19:01.847Z,7.57
2022-07-27T21:24:29.976Z,8.40
2022-07-27T21:30:00.345Z,6.97
2022-07-27T21:35:25.709Z,7.00
2022-07-27T21:40:52.752Z,6.78
2022-07-27T21:46:20.830Z,6.95
2022-07-27T21:51:50.323Z,6.93
2022-07-27T21:57:18.871Z,7.47
2022-07-27T22:02:50.246Z,8.13
2022-07-27T22:08:19.101Z,8.85
2022-07-27T22:13:48.475Z,9.07
2022-07-27T22:19:18.433Z,8.25
2022-07-27T22:24:47.326Z,8.18
2022-07-27T22:30:16.859Z,8.00
2022-07-27T22:35:47.508Z,8.68
2022-07-27T22:41:16.256Z,9.15
2022-07-27T22:46:45.134Z,8.48
2022-07-27T22:52:15.680Z,9.30
2022-07-27T22:57:45.383Z,8.68
2022-07-27T23:03:14.470Z,7.50
2022-07-27T23:08:44.622Z,8.35
2022-07-27T23:14:14.729Z,9.85
2022-07-27T23:19:44.248Z,9.45
2022-07-27T23:30:44.813Z,9.07
2022-07-27T23:36:14.061Z,9.20
2022-07-27T23:41:49.375Z,8.20
2022-07-27T23:47:19.304Z,8.75
2022-07-27T23:58:18.461Z,8.68
